Carnival Glory — 3FPS9 — position and weather

sailwx.info

Track history (hours):
 
Tides and Currents Weather Stations Pressure Air Temp Water Temp Dewpoint Dewpoint Depression Visibility Wind Speed Wind Dir Waves Ship Positions

Carnival Glory

Operator: Carnival Cruise Lines

Last reported at 2019-Sep-17 04:00 UTC. Time now 2019-Sep-17 09:07 UTC.
Position N 23°06' W 086°48'.

Type: Passenger vessel. MMSI: 357659000.

Wind from 100 at 6 knots

Barometer 1018.4 mb
Air temperature 26.0 ° C
Dewpoint 19.9 ° C
Water temperature 30.0 ° C

Date/timePositionNaut miles runAvg speedWind from/ knotsBaromVisibWave heightAir tempDewpointWater temp
2019-Sep-17 04:00N 23°06' W 086°48'40315.6 100 / 61018.4 26.019.930.0
2019-Sep-16 02:04N 29°22' W 089°32'811.5
2019-Sep-16 01:21N 29°27' W 089°39'1515.0
2019-Sep-16 00:22N 29°36' W 089°52'613.2
2019-Sep-15 23:57N 29°39' W 089°57'613.2
2019-Sep-15 23:30N 29°45' W 090°01'713.6
2019-Sep-15 23:00N 29°51' W 089°59'4 8.5
2019-Sep-15 22:30N 29°53' W 089°54'5 9.7
2019-Sep-15 22:00N 29°56' W 089°59'4 8.7
2019-Sep-15 21:30N 29°57' W 090°04'0 0.6
2019-Sep-15 20:58N 29°56' W 090°04'0 0.0
2019-Sep-15 20:22N 29°56' W 090°04'0 0.0
2019-Sep-15 19:55N 29°56' W 090°04'0 0.0
2019-Sep-15 19:28N 29°56' W 090°04'0 0.0
2019-Sep-15 18:58N 29°56' W 090°04'0 0.0
2019-Sep-15 18:25N 29°56' W 090°04'0 0.0
2019-Sep-15 17:58N 29°56' W 090°04'0 0.0
2019-Sep-15 17:28N 29°56' W 090°04'0 0.0
2019-Sep-15 16:58N 29°56' W 090°04'0 0.0
2019-Sep-15 16:25N 29°56' W 090°04'0 0.0
2019-Sep-15 15:55N 29°56' W 090°04'0 0.0
2019-Sep-15 15:28N 29°56' W 090°04'4 8.2
2019-Sep-15 15:00N 29°54' W 090°00'4230.1 250 / 101017.010.8 26.019.930.0
2019-Sep-15 14:58N 29°56' W 090°04'0 0.0
2019-Sep-15 14:28N 29°56' W 090°04'0 0.0
2019-Sep-15 13:58N 29°56' W 090°04'0 0.0
2019-Sep-15 13:28N 29°56' W 090°04'0 0.0
2019-Sep-15 12:52N 29°56' W 090°04'0 0.0
2019-Sep-15 12:28N 29°56' W 090°04'0 0.0
2019-Sep-15 11:58N 29°56' W 090°04'0 0.0
2019-Sep-15 11:28N 29°56' W 090°04'0 0.0
2019-Sep-15 10:58N 29°56' W 090°04'0 0.0
2019-Sep-15 10:30N 29°56' W 090°04'2 4.1
2019-Sep-15 10:00N 29°57' W 090°01'610.7
2019-Sep-15 09:28N 29°55' W 089°55'3 6.3
2019-Sep-15 09:00N 29°52' W 089°57'5 9.7
2019-Sep-15 08:30N 29°49' W 090°00'611.4
2019-Sep-15 08:00N 29°43' W 089°59'611.2
2019-Sep-15 07:30N 29°38' W 089°56'54918.0
2019-Sep-14 01:00N 21°00' W 086°36'2331.1 060 / 151012.010.8 26.019.930.0
2019-Sep-14 00:16N 20°43' W 086°52'622.1
2019-Sep-14 00:00N 20°39' W 086°56'815.1
2019-Sep-13 23:30N 20°32' W 086°60'4 7.1
2019-Sep-13 23:01N 20°29' W 086°59'0 0.3
2019-Sep-13 22:28N 20°29' W 086°59'0 0.0
2019-Sep-13 21:58N 20°29' W 086°59'0 0.0
2019-Sep-13 21:28N 20°29' W 086°59'0 0.0
2019-Sep-13 20:58N 20°29' W 086°59'0 0.0
2019-Sep-13 20:25N 20°29' W 086°59'0 0.0
2019-Sep-13 19:55N 20°29' W 086°59'0 0.0
2019-Sep-13 19:25N 20°29' W 086°59'0 0.0
2019-Sep-13 18:58N 20°29' W 086°59'0 0.0
2019-Sep-13 18:28N 20°29' W 086°59'0 0.0
2019-Sep-13 17:58N 20°29' W 086°59'0 0.0
2019-Sep-13 17:28N 20°29' W 086°59'613.6
2019-Sep-13 17:00N 20°24' W 086°54'6110.0 050 / 111015.410.8 26.019.930.0
2019-Sep-13 16:56N 20°29' W 086°59'0 0.0
2019-Sep-13 16:26N 20°29' W 086°59'0 0.0
2019-Sep-13 15:56N 20°29' W 086°59'0 0.0
2019-Sep-13 15:29N 20°29' W 086°59'0 0.0
2019-Sep-13 14:59N 20°29' W 086°59'0 0.0
2019-Sep-13 14:29N 20°29' W 086°59'1 2.7
2019-Sep-13 14:00N 20°30' W 086°59'4 8.8
2019-Sep-13 13:31N 20°34' W 086°57'712.9
2019-Sep-13 13:00N 20°39' W 086°53'24420.3
2019-Sep-13 01:00N 19°36' W 082°42'83 6.9 280 / 51012.210.8 26.019.930.0
2019-Sep-12 13:00N 19°12' W 081°18'12312.3 060 / 101011.310.8 26.019.930.0
2019-Sep-12 03:00N 18°42' W 079°12'123 4.7 280 / 41012.310.8 26.019.930.0
2019-Sep-11 01:00N 19°42' W 081°06'22118.5 100 / 151014.510.8 26.019.930.0
2019-Sep-10 13:00N 21°12' W 084°42'15615.6 090 / 301017.1 5.4 25.018.830.0
2019-Sep-10 03:00N 23°24' W 086°12'11614.5 100 / 221016.8 26.019.930.0
2019-Sep-09 19:00N 25°06' W 087°12'30715.9 080 / 171020.410.8 26.019.931.0
2019-Sep-08 23:40N 29°37' W 089°54'213.1
2019-Sep-08 23:30N 29°38' W 089°56'612.6
2019-Sep-08 23:00N 29°44' W 089°60'612.5
2019-Sep-08 22:30N 29°50' W 089°59'5 9.5
2019-Sep-08 22:00N 29°52' W 089°55'4 8.6
2019-Sep-08 21:30N 29°55' W 089°58'510.5
2019-Sep-08 21:00N 29°57' W 090°04'1 1.3
2019-Sep-08 20:28N 29°56' W 090°04'0 0.0
2019-Sep-08 19:58N 29°56' W 090°04'0 0.0
2019-Sep-08 19:28N 29°56' W 090°04'0 0.0
2019-Sep-08 18:58N 29°56' W 090°04'0 0.0
2019-Sep-08 18:28N 29°56' W 090°04'0 0.0
2019-Sep-08 17:55N 29°56' W 090°04'0 0.0
2019-Sep-08 17:28N 29°56' W 090°04'0 0.0
2019-Sep-08 16:58N 29°56' W 090°04'0 0.0
2019-Sep-08 16:22N 29°56' W 090°04'0 0.0
2019-Sep-08 15:58N 29°56' W 090°04'0 0.0
2019-Sep-08 15:28N 29°56' W 090°04'0 0.0
2019-Sep-08 14:58N 29°56' W 090°04'0 0.0
2019-Sep-08 14:28N 29°56' W 090°04'0 0.0
2019-Sep-08 13:49N 29°56' W 090°04'0 0.0
2019-Sep-08 13:28N 29°56' W 090°04'0 0.0
2019-Sep-08 12:58N 29°56' W 090°04'0 0.0
2019-Sep-08 12:28N 29°56' W 090°04'0 0.0
2019-Sep-08 11:58N 29°56' W 090°04'0 0.0
2019-Sep-08 11:28N 29°56' W 090°04'0 0.0
2019-Sep-08 10:58N 29°56' W 090°04'0 0.0
2019-Sep-08 10:28N 29°56' W 090°04'0 0.1
2019-Sep-08 10:01N 29°56' W 090°04'3 6.5
2019-Sep-08 09:31N 29°56' W 089°60'510.3
2019-Sep-08 09:00N 29°54' W 089°54'4 7.7
2019-Sep-08 08:30N 29°52' W 089°58'612.4
2019-Sep-08 08:00N 29°47' W 090°01'611.7
2019-Sep-08 07:30N 29°41' W 089°58'510.4
2019-Sep-08 07:00N 29°37' W 089°54'611.8
2019-Sep-08 06:30N 29°35' W 089°48'713.3
2019-Sep-08 06:00N 29°30' W 089°43'713.0
2019-Sep-08 05:30N 29°27' W 089°36'16412.1
2019-Sep-07 16:00N 26°54' W 088°30'   110 / 151016.510.8 28.018.830.0
Track history (hours):
 
Tides and Currents Weather Stations Pressure Air Temp Water Temp Dewpoint Dewpoint Depression Visibility Wind Speed Wind Dir Waves Ship Positions

Carnival Glory

Operator: Carnival Cruise Lines

Last reported at 2019-Sep-17 04:00 UTC. Time now 2019-Sep-17 09:07 UTC.
Position N 23°06' W 086°48'.

Type: Passenger vessel. MMSI: 357659000.

Wind from 100 at 6 knots

Barometer 1018.4 mb
Air temperature 26.0 ° C
Dewpoint 19.9 ° C
Water temperature 30.0 ° C

Date/timePositionNaut miles runAvg speedWind from/ knotsBaromVisibWave heightAir tempDewpointWater temp
2019-Sep-17 04:00N 23°06' W 086°48'40315.6 100 / 61018.4 26.019.930.0
2019-Sep-16 02:04N 29°22' W 089°32'811.5
2019-Sep-16 01:21N 29°27' W 089°39'1515.0
2019-Sep-16 00:22N 29°36' W 089°52'613.2
2019-Sep-15 23:57N 29°39' W 089°57'613.2
2019-Sep-15 23:30N 29°45' W 090°01'713.6
2019-Sep-15 23:00N 29°51' W 089°59'4 8.5
2019-Sep-15 22:30N 29°53' W 089°54'5 9.7
2019-Sep-15 22:00N 29°56' W 089°59'4 8.7
2019-Sep-15 21:30N 29°57' W 090°04'0 0.6
2019-Sep-15 20:58N 29°56' W 090°04'0 0.0
2019-Sep-15 20:22N 29°56' W 090°04'0 0.0
2019-Sep-15 19:55N 29°56' W 090°04'0 0.0
2019-Sep-15 19:28N 29°56' W 090°04'0 0.0
2019-Sep-15 18:58N 29°56' W 090°04'0 0.0
2019-Sep-15 18:25N 29°56' W 090°04'0 0.0
2019-Sep-15 17:58N 29°56' W 090°04'0 0.0
2019-Sep-15 17:28N 29°56' W 090°04'0 0.0
2019-Sep-15 16:58N 29°56' W 090°04'0 0.0
2019-Sep-15 16:25N 29°56' W 090°04'0 0.0
2019-Sep-15 15:55N 29°56' W 090°04'0 0.0
2019-Sep-15 15:28N 29°56' W 090°04'4 8.2
2019-Sep-15 15:00N 29°54' W 090°00'4230.1 250 / 101017.010.8 26.019.930.0
2019-Sep-15 14:58N 29°56' W 090°04'0 0.0
2019-Sep-15 14:28N 29°56' W 090°04'0 0.0
2019-Sep-15 13:58N 29°56' W 090°04'0 0.0
2019-Sep-15 13:28N 29°56' W 090°04'0 0.0
2019-Sep-15 12:52N 29°56' W 090°04'0 0.0
2019-Sep-15 12:28N 29°56' W 090°04'0 0.0
2019-Sep-15 11:58N 29°56' W 090°04'0 0.0
2019-Sep-15 11:28N 29°56' W 090°04'0 0.0
2019-Sep-15 10:58N 29°56' W 090°04'0 0.0
2019-Sep-15 10:30N 29°56' W 090°04'2 4.1
2019-Sep-15 10:00N 29°57' W 090°01'610.7
2019-Sep-15 09:28N 29°55' W 089°55'3 6.3
2019-Sep-15 09:00N 29°52' W 089°57'5 9.7
2019-Sep-15 08:30N 29°49' W 090°00'611.4
2019-Sep-15 08:00N 29°43' W 089°59'611.2
2019-Sep-15 07:30N 29°38' W 089°56'54918.0
2019-Sep-14 01:00N 21°00' W 086°36'2331.1 060 / 151012.010.8 26.019.930.0
2019-Sep-14 00:16N 20°43' W 086°52'622.1
2019-Sep-14 00:00N 20°39' W 086°56'815.1
2019-Sep-13 23:30N 20°32' W 086°60'4 7.1
2019-Sep-13 23:01N 20°29' W 086°59'0 0.3
2019-Sep-13 22:28N 20°29' W 086°59'0 0.0
2019-Sep-13 21:58N 20°29' W 086°59'0 0.0
2019-Sep-13 21:28N 20°29' W 086°59'0 0.0
2019-Sep-13 20:58N 20°29' W 086°59'0 0.0
2019-Sep-13 20:25N 20°29' W 086°59'0 0.0
2019-Sep-13 19:55N 20°29' W 086°59'0 0.0
2019-Sep-13 19:25N 20°29' W 086°59'0 0.0
2019-Sep-13 18:58N 20°29' W 086°59'0 0.0
2019-Sep-13 18:28N 20°29' W 086°59'0 0.0
2019-Sep-13 17:58N 20°29' W 086°59'0 0.0
2019-Sep-13 17:28N 20°29' W 086°59'613.6
2019-Sep-13 17:00N 20°24' W 086°54'6110.0 050 / 111015.410.8 26.019.930.0
2019-Sep-13 16:56N 20°29' W 086°59'0 0.0
2019-Sep-13 16:26N 20°29' W 086°59'0 0.0
2019-Sep-13 15:56N 20°29' W 086°59'0 0.0
2019-Sep-13 15:29N 20°29' W 086°59'0 0.0
2019-Sep-13 14:59N 20°29' W 086°59'0 0.0
2019-Sep-13 14:29N 20°29' W 086°59'1 2.7
2019-Sep-13 14:00N 20°30' W 086°59'4 8.8
2019-Sep-13 13:31N 20°34' W 086°57'712.9
2019-Sep-13 13:00N 20°39' W 086°53'24420.3
2019-Sep-13 01:00N 19°36' W 082°42'83 6.9 280 / 51012.210.8 26.019.930.0
2019-Sep-12 13:00N 19°12' W 081°18'12312.3 060 / 101011.310.8 26.019.930.0
2019-Sep-12 03:00N 18°42' W 079°12'123 4.7 280 / 41012.310.8 26.019.930.0
2019-Sep-11 01:00N 19°42' W 081°06'22118.5 100 / 151014.510.8 26.019.930.0
2019-Sep-10 13:00N 21°12' W 084°42'15615.6 090 / 301017.1 5.4 25.018.830.0
2019-Sep-10 03:00N 23°24' W 086°12'11614.5 100 / 221016.8 26.019.930.0
2019-Sep-09 19:00N 25°06' W 087°12'30715.9 080 / 171020.410.8 26.019.931.0
2019-Sep-08 23:40N 29°37' W 089°54'213.1
2019-Sep-08 23:30N 29°38' W 089°56'612.6
2019-Sep-08 23:00N 29°44' W 089°60'612.5
2019-Sep-08 22:30N 29°50' W 089°59'5 9.5
2019-Sep-08 22:00N 29°52' W 089°55'4 8.6
2019-Sep-08 21:30N 29°55' W 089°58'510.5
2019-Sep-08 21:00N 29°57' W 090°04'1 1.3
2019-Sep-08 20:28N 29°56' W 090°04'0 0.0
2019-Sep-08 19:58N 29°56' W 090°04'0 0.0
2019-Sep-08 19:28N 29°56' W 090°04'0 0.0
2019-Sep-08 18:58N 29°56' W 090°04'0 0.0
2019-Sep-08 18:28N 29°56' W 090°04'0 0.0
2019-Sep-08 17:55N 29°56' W 090°04'0 0.0
2019-Sep-08 17:28N 29°56' W 090°04'0 0.0
2019-Sep-08 16:58N 29°56' W 090°04'0 0.0
2019-Sep-08 16:22N 29°56' W 090°04'0 0.0
2019-Sep-08 15:58N 29°56' W 090°04'0 0.0
2019-Sep-08 15:28N 29°56' W 090°04'0 0.0
2019-Sep-08 14:58N 29°56' W 090°04'0 0.0
2019-Sep-08 14:28N 29°56' W 090°04'0 0.0
2019-Sep-08 13:49N 29°56' W 090°04'0 0.0
2019-Sep-08 13:28N 29°56' W 090°04'0 0.0
2019-Sep-08 12:58N 29°56' W 090°04'0 0.0
2019-Sep-08 12:28N 29°56' W 090°04'0 0.0
2019-Sep-08 11:58N 29°56' W 090°04'0 0.0
2019-Sep-08 11:28N 29°56' W 090°04'0 0.0
2019-Sep-08 10:58N 29°56' W 090°04'0 0.0
2019-Sep-08 10:28N 29°56' W 090°04'0 0.1
2019-Sep-08 10:01N 29°56' W 090°04'3 6.5
2019-Sep-08 09:31N 29°56' W 089°60'510.3
2019-Sep-08 09:00N 29°54' W 089°54'4 7.7
2019-Sep-08 08:30N 29°52' W 089°58'612.4
2019-Sep-08 08:00N 29°47' W 090°01'611.7
2019-Sep-08 07:30N 29°41' W 089°58'510.4
2019-Sep-08 07:00N 29°37' W 089°54'611.8
2019-Sep-08 06:30N 29°35' W 089°48'713.3
2019-Sep-08 06:00N 29°30' W 089°43'713.0
2019-Sep-08 05:30N 29°27' W 089°36'16412.1
2019-Sep-07 16:00N 26°54' W 088°30'   110 / 151016.510.8 28.018.830.0

Dump ship's entire track history